Terminal Aerodrome Forecast
Issued by NWS Lake Charles, LA

Home | Current Version | Previous Version | Text Only | Print | Product List | Glossary On
Versions: 1 2 3 4 5 6 7 8 9 10 11 12 13 14 15 16 17 18 19 20
281
FTUS44 KLCH 241138
TAFARA
TAF
KARA 241138Z 2412/2512 16010KT P6SM SCT011 BKN021 OVC024
      TEMPO 2412/2415 3SM BR BKN011 OVC021
     FM241600 18012G22KT P6SM BKN015 OVC027
     FM250100 18010KT P6SM OVC015
     FM250700 20009KT 4SM BR VCSH OVC007
      TEMPO 2507/2508 2SM -TSRA BKN018CB OVC024=

USA.gov is the U.S. government's official web portal to all federal, state and local government web resources and services.